This is the latest recevied weather packets stored in our database for station/object KF7SOJ. If no packets are shown the sender has not sent any weather packets the latest 10 day(s).
| Time | Temp. | Humidity | Pressure | Rain* | Wind** | Luminosity | Snow |
|---|---|---|---|---|---|---|---|
| 1778100890 | 16.67° C | 22% | 928.6 hPa | 0 mm | - | 681 W/m² | - |
| 1778100586 | 16.67° C | 22% | 928.8 hPa | 0 mm | - | 672 W/m² | - |
| 1778100284 | 17.22° C | 20% | 928.8 hPa | 0 mm | - | 574 W/m² | - |
| 1778099981 | 17.22° C | 21% | 928.9 hPa | 0 mm | - | 862 W/m² | - |
| 1778099678 | 17.22° C | 19% | 929 hPa | 0 mm | - | 932 W/m² | - |
| 1778099375 | 16.67° C | 21% | 929.1 hPa | 0 mm | - | 939 W/m² | - |
| 1778099073 | 16.67° C | 21% | 929.2 hPa | 0 mm | - | 649 W/m² | - |
| 1778098769 | 17.22° C | 20% | 929.3 hPa | 0 mm | - | 938 W/m² | - |
| 1778098466 | 16.67° C | 22% | 929.4 hPa | 0 mm | - | 1017 W/m² | - |
| 1778098163 | 16.67° C | 20% | 929.4 hPa | 0 mm | - | 958 W/m² | - |
| 1778097859 | 15° C | 23% | 929.6 hPa | 0 mm | - | 863 W/m² | - |
| 1778097556 | 15.56° C | 23% | 929.6 hPa | 0 mm | - | 955 W/m² | - |
| 1778097253 | 15° C | 23% | 929.7 hPa | 0 mm | - | 712 W/m² | - |
| 1778096949 | 14.44° C | 24% | 929.9 hPa | 0 mm | - | 895 W/m² | - |
| 1778096646 | 14.44° C | 24% | 930 hPa | 0 mm | - | 907 W/m² | - |
| 1778096343 | 14.44° C | 23% | 930.2 hPa | 0 mm | - | 641 W/m² | - |
| 1778096041 | 13.89° C | 22% | 930.2 hPa | 0 mm | - | 719 W/m² | - |
| 1778095737 | 14.44° C | 23% | 930.3 hPa | 0 mm | - | 681 W/m² | - |
| 1778095434 | 14.44° C | 23% | 930.1 hPa | 0 mm | - | 908 W/m² | - |
| 1778095131 | 13.89° C | 23% | 930.5 hPa | 0 mm | - | 1045 W/m² | - |
| 1778094827 | 13.89° C | 21% | 930.6 hPa | 0 mm | - | 1003 W/m² | - |
| 1778094524 | 14.44° C | 22% | 930.5 hPa | 0 mm | - | 993 W/m² | - |
| 1778094220 | 13.89° C | 23% | 930.8 hPa | 0 mm | - | 989 W/m² | - |
| 1778093917 | 13.33° C | 23% | 930.8 hPa | 0 mm | - | 976 W/m² | - |
| 1778093614 | 12.78° C | 24% | 930.9 hPa | 0 mm | - | 976 W/m² | - |
* Rain latest hour (hover to see other rain measurements)
** Current wind speed in m/s (hover to see current wind gust speed)